sensor_id;sensor_type;location;lat;lon;timestamp;pressure;altitude;pressure_sealevel;temperature;humidity
17054;BME280;8643;48.824;11.422;2023-05-22T00:01:49;96550.00;;;15.78;89.53
17054;BME280;8643;48.824;11.422;2023-05-22T00:04:19;96540.84;;;15.73;89.94
17054;BME280;8643;48.824;11.422;2023-05-22T00:06:48;96546.00;;;15.75;89.71
17054;BME280;8643;48.824;11.422;2023-05-22T00:09:17;96546.31;;;15.70;89.72
17054;BME280;8643;48.824;11.422;2023-05-22T00:11:45;96542.38;;;15.71;89.85
17054;BME280;8643;48.824;11.422;2023-05-22T00:14:14;96541.56;;;15.67;90.57
17054;BME280;8643;48.824;11.422;2023-05-22T00:16:44;96540.75;;;15.66;90.38
17054;BME280;8643;48.824;11.422;2023-05-22T00:19:14;96540.31;;;15.64;90.18
17054;BME280;8643;48.824;11.422;2023-05-22T00:21:45;96535.94;;;15.60;91.29
17054;BME280;8643;48.824;11.422;2023-05-22T00:24:14;96536.00;;;15.63;91.01
17054;BME280;8643;48.824;11.422;2023-05-22T00:26:42;96536.78;;;15.64;90.45
17054;BME280;8643;48.824;11.422;2023-05-22T00:29:11;96533.59;;;15.62;90.25
17054;BME280;8643;48.824;11.422;2023-05-22T00:31:40;96540.28;;;15.61;90.53
17054;BME280;8643;48.824;11.422;2023-05-22T00:34:10;96536.31;;;15.58;91.22
17054;BME280;8643;48.824;11.422;2023-05-22T00:36:39;96538.22;;;15.54;91.34
17054;BME280;8643;48.824;11.422;2023-05-22T00:39:08;96532.72;;;15.54;91.15
17054;BME280;8643;48.824;11.422;2023-05-22T00:41:36;96528.41;;;15.56;91.51
17054;BME280;8643;48.824;11.422;2023-05-22T00:44:05;96534.69;;;15.53;91.00
17054;BME280;8643;48.824;11.422;2023-05-22T00:46:34;96537.84;;;15.55;91.29
17054;BME280;8643;48.824;11.422;2023-05-22T00:49:04;96536.63;;;15.53;91.96
17054;BME280;8643;48.824;11.422;2023-05-22T00:51:34;96527.94;;;15.51;91.66
17054;BME280;8643;48.824;11.422;2023-05-22T00:54:04;96538.16;;;15.47;91.48
17054;BME280;8643;48.824;11.422;2023-05-22T00:56:33;96533.81;;;15.49;90.83
17054;BME280;8643;48.824;11.422;2023-05-22T00:59:02;96538.84;;;15.40;92.24
17054;BME280;8643;48.824;11.422;2023-05-22T01:01:32;96536.75;;;15.33;92.50
17054;BME280;8643;48.824;11.422;2023-05-22T01:04:05;96535.19;;;15.32;92.66
17054;BME280;8643;48.824;11.422;2023-05-22T01:06:37;96539.06;;;15.28;92.64
17054;BME280;8643;48.824;11.422;2023-05-22T01:09:07;96533.53;;;15.28;92.29
17054;BME280;8643;48.824;11.422;2023-05-22T01:11:44;96535.94;;;15.29;92.82
17054;BME280;8643;48.824;11.422;2023-05-22T01:14:22;96544.19;;;15.29;92.75
17054;BME280;8643;48.824;11.422;2023-05-22T01:16:59;96541.06;;;15.31;92.98
17054;BME280;8643;48.824;11.422;2023-05-22T01:20:03;96546.69;;;15.38;92.02
17054;BME280;8643;48.824;11.422;2023-05-22T01:26:17;96537.91;;;15.29;92.50
17054;BME280;8643;48.824;11.422;2023-05-22T01:29:07;96545.84;;;15.34;92.19
17054;BME280;8643;48.824;11.422;2023-05-22T01:31:44;96542.97;;;15.27;93.14
17054;BME280;8643;48.824;11.422;2023-05-22T01:34:16;96543.84;;;15.31;92.49
17054;BME280;8643;48.824;11.422;2023-05-22T01:36:49;96542.59;;;15.28;92.73
17054;BME280;8643;48.824;11.422;2023-05-22T01:39:21;96542.56;;;15.25;92.77
17054;BME280;8643;48.824;11.422;2023-05-22T01:41:52;96543.41;;;15.29;92.57
17054;BME280;8643;48.824;11.422;2023-05-22T01:44:21;96548.13;;;15.28;92.81
17054;BME280;8643;48.824;11.422;2023-05-22T01:46:51;96544.09;;;15.22;92.98
17054;BME280;8643;48.824;11.422;2023-05-22T01:49:20;96549.22;;;15.24;92.38
17054;BME280;8643;48.824;11.422;2023-05-22T01:51:52;96551.19;;;15.23;93.40
17054;BME280;8643;48.824;11.422;2023-05-22T01:54:31;96549.66;;;15.26;92.70
17054;BME280;8643;48.824;11.422;2023-05-22T01:57:10;96552.53;;;15.33;92.18
17054;BME280;8643;48.824;11.422;2023-05-22T01:59:46;96546.59;;;15.31;92.45
17054;BME280;8643;48.824;11.422;2023-05-22T02:02:18;96546.59;;;15.31;92.57
17054;BME280;8643;48.824;11.422;2023-05-22T02:04:56;96545.00;;;15.30;92.94
17054;BME280;8643;48.824;11.422;2023-05-22T02:07:27;96549.66;;;15.26;92.90
17054;BME280;8643;48.824;11.422;2023-05-22T02:09:57;96541.06;;;15.31;92.59
17054;BME280;8643;48.824;11.422;2023-05-22T02:12:27;96541.84;;;15.31;91.91
17054;BME280;8643;48.824;11.422;2023-05-22T02:14:57;96541.16;;;15.38;91.67
17054;BME280;8643;48.824;11.422;2023-05-22T02:17:28;96549.81;;;15.36;91.31
17054;BME280;8643;48.824;11.422;2023-05-22T02:19:57;96539.22;;;15.38;91.67
17054;BME280;8643;48.824;11.422;2023-05-22T02:22:25;96545.41;;;15.32;91.56
17054;BME280;8643;48.824;11.422;2023-05-22T02:24:56;96540.69;;;15.32;91.81
17054;BME280;8643;48.824;11.422;2023-05-22T02:27:24;96545.41;;;15.32;91.65
17054;BME280;8643;48.824;11.422;2023-05-22T02:29:54;96540.34;;;15.34;91.71
17054;BME280;8643;48.824;11.422;2023-05-22T02:32:22;96538.72;;;15.33;91.46
17054;BME280;8643;48.824;11.422;2023-05-22T02:34:52;96543.34;;;15.25;92.12
17054;BME280;8643;48.824;11.422;2023-05-22T02:37:21;96540.91;;;15.20;92.68
17054;BME280;8643;48.824;11.422;2023-05-22T02:39:50;96544.41;;;15.17;92.62
17054;BME280;8643;48.824;11.422;2023-05-22T02:42:19;96540.00;;;15.12;92.93
17054;BME280;8643;48.824;11.422;2023-05-22T02:44:47;96538.44;;;15.11;92.76
17054;BME280;8643;48.824;11.422;2023-05-22T02:47:16;96544.25;;;15.06;93.05
17054;BME280;8643;48.824;11.422;2023-05-22T02:49:45;96537.47;;;15.00;93.94
17054;BME280;8643;48.824;11.422;2023-05-22T02:52:15;96540.59;;;14.98;94.03
17054;BME280;8643;48.824;11.422;2023-05-22T02:54:44;96536.59;;;14.96;93.98
17054;BME280;8643;48.824;11.422;2023-05-22T02:57:13;96532.38;;;15.02;93.81
17054;BME280;8643;48.824;11.422;2023-05-22T02:59:41;96538.94;;;14.94;93.89
17054;BME280;8643;48.824;11.422;2023-05-22T03:02:11;96535.41;;;14.93;93.58
17054;BME280;8643;48.824;11.422;2023-05-22T03:04:41;96542.88;;;14.93;94.14
17054;BME280;8643;48.824;11.422;2023-05-22T03:07:09;96548.69;;;14.88;94.36
17054;BME280;8643;48.824;11.422;2023-05-22T03:09:40;96545.56;;;14.89;93.77
17054;BME280;8643;48.824;11.422;2023-05-22T03:12:09;96543.91;;;14.84;94.10
17054;BME280;8643;48.824;11.422;2023-05-22T03:14:37;96545.03;;;14.80;95.00
17054;BME280;8643;48.824;11.422;2023-05-22T03:17:06;96545.59;;;14.66;95.89
17054;BME280;8643;48.824;11.422;2023-05-22T03:19:35;96546.59;;;14.58;96.17
17054;BME280;8643;48.824;11.422;2023-05-22T03:22:04;96546.84;;;14.49;96.95
17054;BME280;8643;48.824;11.422;2023-05-22T03:24:34;96553.03;;;14.42;97.32
17054;BME280;8643;48.824;11.422;2023-05-22T03:27:04;96548.63;;;14.38;97.80
17054;BME280;8643;48.824;11.422;2023-05-22T03:29:40;96558.69;;;14.30;98.35
17054;BME280;8643;48.824;11.422;2023-05-22T03:32:09;96558.28;;;14.28;99.26
17054;BME280;8643;48.824;11.422;2023-05-22T03:34:37;96562.00;;;14.16;99.63
17054;BME280;8643;48.824;11.422;2023-05-22T03:37:09;96558.84;;;14.18;99.81
17054;BME280;8643;48.824;11.422;2023-05-22T03:39:37;96557.34;;;14.20;100.00
17054;BME280;8643;48.824;11.422;2023-05-22T03:42:18;96565.91;;;14.15;99.81
17054;BME280;8643;48.824;11.422;2023-05-22T03:44:47;96561.53;;;14.14;100.00
17054;BME280;8643;48.824;11.422;2023-05-22T03:47:17;96570.75;;;14.02;100.00
17054;BME280;8643;48.824;11.422;2023-05-22T03:49:46;96561.44;;;13.87;100.00
17054;BME280;8643;48.824;11.422;2023-05-22T03:52:15;96561.00;;;13.85;100.00
17054;BME280;8643;48.824;11.422;2023-05-22T03:54:44;96557.38;;;13.81;100.00
17054;BME280;8643;48.824;11.422;2023-05-22T03:57:14;96555.19;;;13.71;100.00
17054;BME280;8643;48.824;11.422;2023-05-22T03:59:47;96557.97;;;13.71;100.00
17054;BME280;8643;48.824;11.422;2023-05-22T04:02:16;96559.16;;;13.73;100.00
17054;BME280;8643;48.824;11.422;2023-05-22T04:04:46;96559.75;;;13.83;100.00
17054;BME280;8643;48.824;11.422;2023-05-22T04:07:17;96566.16;;;13.87;100.00
17054;BME280;8643;48.824;11.422;2023-05-22T04:09:46;96565.03;;;13.91;100.00
17054;BME280;8643;48.824;11.422;2023-05-22T04:12:15;96558.31;;;13.89;100.00
17054;BME280;8643;48.824;11.422;2023-05-22T04:14:43;96565.56;;;13.97;100.00
17054;BME280;8643;48.824;11.422;2023-05-22T04:17:14;96557.78;;;14.03;100.00
17054;BME280;8643;48.824;11.422;2023-05-22T04:19:43;96566.25;;;14.14;100.00
17054;BME280;8643;48.824;11.422;2023-05-22T04:22:12;96567.25;;;14.25;100.00
17054;BME280;8643;48.824;11.422;2023-05-22T04:24:43;96560.78;;;14.37;100.00
17054;BME280;8643;48.824;11.422;2023-05-22T04:27:15;96563.38;;;14.49;100.00
17054;BME280;8643;48.824;11.422;2023-05-22T04:29:44;96561.09;;;14.55;100.00
17054;BME280;8643;48.824;11.422;2023-05-22T04:32:14;96564.88;;;14.66;100.00
17054;BME280;8643;48.824;11.422;2023-05-22T04:34:47;96562.34;;;14.80;100.00
17054;BME280;8643;48.824;11.422;2023-05-22T04:37:16;96565.22;;;14.88;100.00
17054;BME280;8643;48.824;11.422;2023-05-22T04:39:46;96568.94;;;14.99;100.00
17054;BME280;8643;48.824;11.422;2023-05-22T04:42:19;96567.06;;;15.03;100.00
17054;BME280;8643;48.824;11.422;2023-05-22T04:44:48;96567.16;;;15.10;100.00
17054;BME280;8643;48.824;11.422;2023-05-22T04:47:20;96569.66;;;15.19;100.00
17054;BME280;8643;48.824;11.422;2023-05-22T04:49:49;96571.41;;;15.31;100.00
17054;BME280;8643;48.824;11.422;2023-05-22T04:52:18;96575.13;;;15.42;100.00
17054;BME280;8643;48.824;11.422;2023-05-22T04:54:47;96572.88;;;15.51;100.00
17054;BME280;8643;48.824;11.422;2023-05-22T04:57:18;96575.38;;;15.60;99.99
17054;BME280;8643;48.824;11.422;2023-05-22T04:59:49;96566.81;;;15.69;99.85
17054;BME280;8643;48.824;11.422;2023-05-22T05:02:19;96566.47;;;15.74;99.49
17054;BME280;8643;48.824;11.422;2023-05-22T05:04:48;96570.91;;;15.79;98.98
17054;BME280;8643;48.824;11.422;2023-05-22T05:07:17;96570.28;;;15.92;98.76
17054;BME280;8643;48.824;11.422;2023-05-22T05:09:45;96568.78;;;15.99;97.94
17054;BME280;8643;48.824;11.422;2023-05-22T05:12:14;96566.47;;;16.04;97.18
17054;BME280;8643;48.824;11.422;2023-05-22T05:14:43;96569.38;;;16.15;97.14
17054;BME280;8643;48.824;11.422;2023-05-22T05:17:14;96576.63;;;16.30;96.19
17054;BME280;8643;48.824;11.422;2023-05-22T05:19:44;96575.84;;;16.30;95.60
17054;BME280;8643;48.824;11.422;2023-05-22T05:22:13;96570.41;;;16.37;97.50
17054;BME280;8643;48.824;11.422;2023-05-22T05:24:42;96568.50;;;16.45;97.03
17054;BME280;8643;48.824;11.422;2023-05-22T05:27:12;96573.72;;;16.54;95.31
17054;BME280;8643;48.824;11.422;2023-05-22T05:29:41;96567.91;;;16.62;94.78
17054;BME280;8643;48.824;11.422;2023-05-22T05:32:18;96562.41;;;16.70;96.46
17054;BME280;8643;48.824;11.422;2023-05-22T05:35:01;96575.22;;;16.85;95.30
17054;BME280;8643;48.824;11.422;2023-05-22T05:37:42;96570.53;;;16.93;93.43
17054;BME280;8643;48.824;11.422;2023-05-22T05:40:13;96568.25;;;17.02;93.12
17054;BME280;8643;48.824;11.422;2023-05-22T05:42:48;96579.41;;;17.13;91.53
17054;BME280;8643;48.824;11.422;2023-05-22T05:45:20;96573.16;;;17.23;91.75
17054;BME280;8643;48.824;11.422;2023-05-22T05:47:51;96573.19;;;17.27;90.90
17054;BME280;8643;48.824;11.422;2023-05-22T05:50:23;96575.31;;;17.51;91.70
17054;BME280;8643;48.824;11.422;2023-05-22T05:52:51;96576.59;;;17.68;89.88
17054;BME280;8643;48.824;11.422;2023-05-22T05:55:20;96571.97;;;17.90;89.87
17054;BME280;8643;48.824;11.422;2023-05-22T05:57:49;96576.41;;;18.06;90.03
17054;BME280;8643;48.824;11.422;2023-05-22T06:00:25;96578.09;;;18.36;87.01
17054;BME280;8643;48.824;11.422;2023-05-22T06:02:54;96592.03;;;18.68;84.84
17054;BME280;8643;48.824;11.422;2023-05-22T06:05:40;96587.34;;;19.12;84.98
17054;BME280;8643;48.824;11.422;2023-05-22T06:08:17;96595.63;;;19.40;83.87
17054;BME280;8643;48.824;11.422;2023-05-22T06:10:48;96592.41;;;19.64;82.38
17054;BME280;8643;48.824;11.422;2023-05-22T06:13:32;96596.72;;;20.01;79.91
17054;BME280;8643;48.824;11.422;2023-05-22T06:16:01;96600.13;;;20.33;76.25
17054;BME280;8643;48.824;11.422;2023-05-22T06:18:33;96596.09;;;20.52;78.17
17054;BME280;8643;48.824;11.422;2023-05-22T06:21:05;96593.28;;;20.63;75.10
17054;BME280;8643;48.824;11.422;2023-05-22T06:23:34;96592.34;;;20.81;73.08
17054;BME280;8643;48.824;11.422;2023-05-22T06:26:03;96597.38;;;21.04;74.16
17054;BME280;8643;48.824;11.422;2023-05-22T06:28:32;96604.88;;;21.07;74.88
17054;BME280;8643;48.824;11.422;2023-05-22T06:31:02;96596.75;;;21.31;71.75
17054;BME280;8643;48.824;11.422;2023-05-22T06:33:32;96601.31;;;21.55;67.78
17054;BME280;8643;48.824;11.422;2023-05-22T06:36:01;96594.06;;;21.65;70.51
17054;BME280;8643;48.824;11.422;2023-05-22T06:38:32;96603.94;;;21.73;71.40
17054;BME280;8643;48.824;11.422;2023-05-22T06:41:01;96594.72;;;21.80;70.03
17054;BME280;8643;48.824;11.422;2023-05-22T06:43:30;96598.59;;;21.90;69.39
17054;BME280;8643;48.824;11.422;2023-05-22T06:46:05;96598.09;;;21.99;70.13
17054;BME280;8643;48.824;11.422;2023-05-22T06:48:44;96601.41;;;22.21;65.70
17054;BME280;8643;48.824;11.422;2023-05-22T06:51:21;96595.75;;;22.28;67.49
17054;BME280;8643;48.824;11.422;2023-05-22T06:53:55;96605.16;;;22.72;67.37
17054;BME280;8643;48.824;11.422;2023-05-22T06:56:29;96608.13;;;22.88;62.50
17054;BME280;8643;48.824;11.422;2023-05-22T06:59:04;96600.50;;;22.35;66.71
17054;BME280;8643;48.824;11.422;2023-05-22T07:01:59;96607.84;;;22.79;70.98
17054;BME280;8643;48.824;11.422;2023-05-22T07:04:42;96611.97;;;23.26;67.63
17054;BME280;8643;48.824;11.422;2023-05-22T07:07:15;96614.81;;;23.46;63.36
17054;BME280;8643;48.824;11.422;2023-05-22T07:09:46;96617.34;;;23.13;61.42
17054;BME280;8643;48.824;11.422;2023-05-22T07:12:15;96616.44;;;23.19;59.97
17054;BME280;8643;48.824;11.422;2023-05-22T07:14:44;96615.22;;;23.20;64.53
17054;BME280;8643;48.824;11.422;2023-05-22T07:17:13;96617.78;;;23.11;63.73
17054;BME280;8643;48.824;11.422;2023-05-22T07:19:43;96619.97;;;23.23;60.66
17054;BME280;8643;48.824;11.422;2023-05-22T07:22:13;96619.25;;;23.67;62.94
17054;BME280;8643;48.824;11.422;2023-05-22T07:24:43;96610.56;;;23.85;60.15
17054;BME280;8643;48.824;11.422;2023-05-22T07:27:17;96615.22;;;24.31;61.42
17054;BME280;8643;48.824;11.422;2023-05-22T07:29:48;96615.91;;;24.19;56.45
17054;BME280;8643;48.824;11.422;2023-05-22T07:32:17;96612.00;;;23.69;58.42
17054;BME280;8643;48.824;11.422;2023-05-22T07:34:46;96619.31;;;23.87;62.20
17054;BME280;8643;48.824;11.422;2023-05-22T07:37:15;96618.47;;;24.10;61.85
17054;BME280;8643;48.824;11.422;2023-05-22T07:39:47;96622.78;;;24.14;58.01
17054;BME280;8643;48.824;11.422;2023-05-22T07:42:17;96621.28;;;24.30;61.58
17054;BME280;8643;48.824;11.422;2023-05-22T07:44:51;96620.97;;;24.24;56.81
17054;BME280;8643;48.824;11.422;2023-05-22T07:47:20;96617.94;;;24.75;62.75
17054;BME280;8643;48.824;11.422;2023-05-22T07:49:50;96617.00;;;24.82;60.40
17054;BME280;8643;48.824;11.422;2023-05-22T07:52:19;96620.19;;;25.00;58.16
17054;BME280;8643;48.824;11.422;2023-05-22T07:54:51;96614.06;;;25.05;52.97
17054;BME280;8643;48.824;11.422;2023-05-22T07:57:21;96614.00;;;24.73;56.64
17054;BME280;8643;48.824;11.422;2023-05-22T07:59:53;96619.09;;;25.31;58.20
17054;BME280;8643;48.824;11.422;2023-05-22T08:02:22;96616.00;;;25.58;61.45
17054;BME280;8643;48.824;11.422;2023-05-22T08:04:51;96618.31;;;25.30;52.62
17054;BME280;8643;48.824;11.422;2023-05-22T08:07:20;96618.69;;;24.96;53.42
17054;BME280;8643;48.824;11.422;2023-05-22T08:09:49;96616.66;;;24.96;55.70
17054;BME280;8643;48.824;11.422;2023-05-22T08:12:17;96618.84;;;25.41;58.62
17054;BME280;8643;48.824;11.422;2023-05-22T08:14:47;96610.91;;;26.15;57.18
17054;BME280;8643;48.824;11.422;2023-05-22T08:17:15;96613.91;;;26.37;50.45
17054;BME280;8643;48.824;11.422;2023-05-22T08:19:44;96618.75;;;26.49;55.51
17054;BME280;8643;48.824;11.422;2023-05-22T08:22:13;96615.75;;;26.57;55.99
17054;BME280;8643;48.824;11.422;2023-05-22T08:24:42;96616.97;;;26.13;50.50
17054;BME280;8643;48.824;11.422;2023-05-22T08:27:10;96607.97;;;26.06;56.74
17054;BME280;8643;48.824;11.422;2023-05-22T08:29:39;96612.09;;;26.30;58.03
17054;BME280;8643;48.824;11.422;2023-05-22T08:32:10;96607.84;;;27.06;51.24
17054;BME280;8643;48.824;11.422;2023-05-22T08:34:38;96604.22;;;26.67;51.74
17054;BME280;8643;48.824;11.422;2023-05-22T08:37:08;96615.72;;;26.86;49.47
17054;BME280;8643;48.824;11.422;2023-05-22T08:39:37;96617.41;;;27.09;53.90
17054;BME280;8643;48.824;11.422;2023-05-22T08:42:06;96605.22;;;27.51;53.46
17054;BME280;8643;48.824;11.422;2023-05-22T08:44:35;96607.56;;;28.13;47.39
17054;BME280;8643;48.824;11.422;2023-05-22T08:47:04;96607.19;;;27.15;49.97
17054;BME280;8643;48.824;11.422;2023-05-22T08:49:39;96609.41;;;27.46;47.78
17054;BME280;8643;48.824;11.422;2023-05-22T08:52:13;96599.63;;;27.98;50.17
17054;BME280;8643;48.824;11.422;2023-05-22T08:54:51;96600.84;;;27.97;47.71
17054;BME280;8643;48.824;11.422;2023-05-22T08:57:23;96601.25;;;28.09;50.66
17054;BME280;8643;48.824;11.422;2023-05-22T08:59:52;96602.97;;;27.58;50.97
17054;BME280;8643;48.824;11.422;2023-05-22T09:02:22;96595.50;;;28.34;47.69
17054;BME280;8643;48.824;11.422;2023-05-22T09:04:53;96597.78;;;28.27;47.65
17054;BME280;8643;48.824;11.422;2023-05-22T09:07:24;96599.94;;;28.45;47.82
17054;BME280;8643;48.824;11.422;2023-05-22T09:09:54;96601.97;;;28.00;50.06
17054;BME280;8643;48.824;11.422;2023-05-22T09:12:25;96596.41;;;28.31;49.82
17054;BME280;8643;48.824;11.422;2023-05-22T09:14:53;96597.91;;;28.45;50.21
17054;BME280;8643;48.824;11.422;2023-05-22T09:17:22;96606.78;;;28.88;47.48
17054;BME280;8643;48.824;11.422;2023-05-22T09:19:52;96603.63;;;29.17;46.95
17054;BME280;8643;48.824;11.422;2023-05-22T09:22:22;96606.41;;;28.55;46.70
17054;BME280;8643;48.824;11.422;2023-05-22T09:24:51;96599.16;;;28.66;47.35
17054;BME280;8643;48.824;11.422;2023-05-22T09:27:22;96603.84;;;29.32;46.21
17054;BME280;8643;48.824;11.422;2023-05-22T09:29:54;96601.72;;;29.55;42.41
17054;BME280;8643;48.824;11.422;2023-05-22T09:32:24;96603.69;;;28.95;43.34
17054;BME280;8643;48.824;11.422;2023-05-22T09:35:03;96604.53;;;29.14;43.36
17054;BME280;8643;48.824;11.422;2023-05-22T09:37:33;96597.56;;;29.28;41.12
17054;BME280;8643;48.824;11.422;2023-05-22T09:40:05;96601.25;;;29.56;45.20
17054;BME280;8643;48.824;11.422;2023-05-22T09:42:34;96598.94;;;29.92;40.65
17054;BME280;8643;48.824;11.422;2023-05-22T09:45:04;96602.38;;;30.42;45.96
17054;BME280;8643;48.824;11.422;2023-05-22T09:47:34;96601.44;;;30.08;41.60
17054;BME280;8643;48.824;11.422;2023-05-22T09:50:06;96597.47;;;29.69;42.79
17054;BME280;8643;48.824;11.422;2023-05-22T09:52:37;96607.34;;;29.64;43.81
17054;BME280;8643;48.824;11.422;2023-05-22T09:55:09;96599.50;;;30.70;43.51
17054;BME280;8643;48.824;11.422;2023-05-22T09:57:41;96594.81;;;30.67;43.26
17054;BME280;8643;48.824;11.422;2023-05-22T10:00:12;96602.75;;;29.39;41.62
17054;BME280;8643;48.824;11.422;2023-05-22T10:02:46;96603.03;;;29.91;43.73
17054;BME280;8643;48.824;11.422;2023-05-22T10:05:16;96599.56;;;30.42;45.77
17054;BME280;8643;48.824;11.422;2023-05-22T10:07:49;96595.31;;;30.56;44.29
17054;BME280;8643;48.824;11.422;2023-05-22T10:10:21;96603.00;;;30.28;41.87
17054;BME280;8643;48.824;11.422;2023-05-22T10:12:55;96599.25;;;30.22;41.09
17054;BME280;8643;48.824;11.422;2023-05-22T10:15:24;96600.38;;;30.43;39.47
17054;BME280;8643;48.824;11.422;2023-05-22T10:17:54;96600.03;;;30.22;41.49
17054;BME280;8643;48.824;11.422;2023-05-22T10:20:26;96589.41;;;30.97;44.65
17054;BME280;8643;48.824;11.422;2023-05-22T10:22:56;96595.97;;;30.42;37.47
17054;BME280;8643;48.824;11.422;2023-05-22T10:25:24;96588.88;;;31.41;39.42
17054;BME280;8643;48.824;11.422;2023-05-22T10:27:54;96592.34;;;31.69;36.09
17054;BME280;8643;48.824;11.422;2023-05-22T10:30:32;96593.41;;;31.96;38.13
17054;BME280;8643;48.824;11.422;2023-05-22T10:33:39;96588.19;;;31.55;36.66
17054;BME280;8643;48.824;11.422;2023-05-22T10:36:12;96591.38;;;31.15;37.72
17054;BME280;8643;48.824;11.422;2023-05-22T10:38:57;96591.22;;;31.42;37.54
17054;BME280;8643;48.824;11.422;2023-05-22T10:41:28;96585.66;;;31.57;35.32
17054;BME280;8643;48.824;11.422;2023-05-22T10:43:57;96586.47;;;31.73;34.52
17054;BME280;8643;48.824;11.422;2023-05-22T10:46:31;96581.44;;;31.53;36.98
17054;BME280;8643;48.824;11.422;2023-05-22T10:49:00;96587.09;;;31.77;37.92
17054;BME280;8643;48.824;11.422;2023-05-22T10:51:32;96580.50;;;31.95;36.10
17054;BME280;8643;48.824;11.422;2023-05-22T10:54:01;96581.88;;;31.85;36.03
17054;BME280;8643;48.824;11.422;2023-05-22T10:56:33;96569.41;;;32.06;38.53
17054;BME280;8643;48.824;11.422;2023-05-22T10:59:04;96577.94;;;31.82;34.11
17054;BME280;8643;48.824;11.422;2023-05-22T11:01:34;96569.50;;;31.24;35.64
17054;BME280;8643;48.824;11.422;2023-05-22T11:04:19;96577.63;;;32.04;36.73
17054;BME280;8643;48.824;11.422;2023-05-22T11:07:03;96570.94;;;32.61;33.00
17054;BME280;8643;48.824;11.422;2023-05-22T11:09:39;96577.06;;;32.30;34.98
17054;BME280;8643;48.824;11.422;2023-05-22T11:12:17;96567.22;;;32.40;41.33
17054;BME280;8643;48.824;11.422;2023-05-22T11:14:50;96571.47;;;32.75;36.74
17054;BME280;8643;48.824;11.422;2023-05-22T11:17:23;96571.59;;;32.26;35.37
17054;BME280;8643;48.824;11.422;2023-05-22T11:19:59;96564.03;;;31.69;40.68
17054;BME280;8643;48.824;11.422;2023-05-22T11:22:37;96574.63;;;31.59;34.09
17054;BME280;8643;48.824;11.422;2023-05-22T11:25:08;96566.03;;;31.20;35.42
17054;BME280;8643;48.824;11.422;2023-05-22T11:27:40;96571.66;;;31.78;36.51
17054;BME280;8643;48.824;11.422;2023-05-22T11:30:10;96563.75;;;31.34;35.52
17054;BME280;8643;48.824;11.422;2023-05-22T11:32:41;96571.50;;;31.82;36.36
17054;BME280;8643;48.824;11.422;2023-05-22T11:35:13;96566.25;;;31.07;37.26
17054;BME280;8643;48.824;11.422;2023-05-22T11:37:45;96564.53;;;31.10;36.22
17054;BME280;8643;48.824;11.422;2023-05-22T11:40:16;96562.91;;;31.91;32.89
17054;BME280;8643;48.824;11.422;2023-05-22T11:42:45;96561.41;;;31.66;36.53
17054;BME280;8643;48.824;11.422;2023-05-22T11:45:14;96560.94;;;31.82;32.81
17054;BME280;8643;48.824;11.422;2023-05-22T11:47:44;96556.06;;;31.83;35.24
17054;BME280;8643;48.824;11.422;2023-05-22T11:50:13;96552.75;;;32.08;34.57
17054;BME280;8643;48.824;11.422;2023-05-22T11:52:57;96548.97;;;31.39;32.95
17054;BME280;8643;48.824;11.422;2023-05-22T11:55:26;96546.47;;;31.65;33.57
17054;BME280;8643;48.824;11.422;2023-05-22T11:57:55;96538.38;;;31.24;36.64
17054;BME280;8643;48.824;11.422;2023-05-22T12:00:24;96543.47;;;31.11;37.50
17054;BME280;8643;48.824;11.422;2023-05-22T12:02:53;96539.00;;;32.16;34.34
17054;BME280;8643;48.824;11.422;2023-05-22T12:05:22;96539.94;;;31.74;32.96
17054;BME280;8643;48.824;11.422;2023-05-22T12:07:51;96546.81;;;32.36;35.43
17054;BME280;8643;48.824;11.422;2023-05-22T12:10:21;96546.81;;;32.51;33.90
17054;BME280;8643;48.824;11.422;2023-05-22T12:12:50;96537.41;;;32.15;32.33
17054;BME280;8643;48.824;11.422;2023-05-22T12:15:19;96540.56;;;32.77;32.44
17054;BME280;8643;48.824;11.422;2023-05-22T12:17:48;96543.84;;;32.90;34.73
17054;BME280;8643;48.824;11.422;2023-05-22T12:20:16;96545.16;;;32.89;33.39
17054;BME280;8643;48.824;11.422;2023-05-22T12:22:45;96537.72;;;32.62;34.31
17054;BME280;8643;48.824;11.422;2023-05-22T12:25:14;96532.91;;;32.08;35.39
17054;BME280;8643;48.824;11.422;2023-05-22T12:27:46;96531.19;;;32.41;34.98
17054;BME280;8643;48.824;11.422;2023-05-22T12:30:15;96533.44;;;32.66;31.72
17054;BME280;8643;48.824;11.422;2023-05-22T12:32:47;96527.72;;;32.96;31.23
17054;BME280;8643;48.824;11.422;2023-05-22T12:35:18;96535.28;;;32.84;31.80
17054;BME280;8643;48.824;11.422;2023-05-22T12:37:48;96531.81;;;32.95;30.52
17054;BME280;8643;48.824;11.422;2023-05-22T12:40:17;96530.50;;;33.11;28.88
17054;BME280;8643;48.824;11.422;2023-05-22T12:42:47;96524.91;;;32.37;30.73
17054;BME280;8643;48.824;11.422;2023-05-22T12:45:17;96519.44;;;32.18;33.66
17054;BME280;8643;48.824;11.422;2023-05-22T12:47:45;96515.00;;;32.02;30.50
17054;BME280;8643;48.824;11.422;2023-05-22T12:50:14;96508.97;;;31.94;32.56
17054;BME280;8643;48.824;11.422;2023-05-22T12:52:43;96514.34;;;32.82;33.67
17054;BME280;8643;48.824;11.422;2023-05-22T12:55:12;96509.91;;;32.30;31.88
17054;BME280;8643;48.824;11.422;2023-05-22T12:57:40;96509.53;;;31.98;33.10
17054;BME280;8643;48.824;11.422;2023-05-22T13:00:12;96504.56;;;31.93;34.74
17054;BME280;8643;48.824;11.422;2023-05-22T13:02:41;96507.66;;;31.80;32.39
17054;BME280;8643;48.824;11.422;2023-05-22T13:05:10;96496.75;;;31.25;36.40
17054;BME280;8643;48.824;11.422;2023-05-22T13:07:39;96496.38;;;31.08;33.18
17054;BME280;8643;48.824;11.422;2023-05-22T13:10:08;96499.72;;;32.09;32.61
17054;BME280;8643;48.824;11.422;2023-05-22T13:12:37;96496.13;;;31.45;35.36
17054;BME280;8643;48.824;11.422;2023-05-22T13:15:06;96498.91;;;32.83;32.57
17054;BME280;8643;48.824;11.422;2023-05-22T13:17:36;96495.91;;;32.72;32.38
17054;BME280;8643;48.824;11.422;2023-05-22T13:20:08;96493.63;;;33.47;31.55
17054;BME280;8643;48.824;11.422;2023-05-22T13:22:37;96498.16;;;32.67;33.31
17054;BME280;8643;48.824;11.422;2023-05-22T13:25:07;96492.13;;;33.31;31.95